Time;durP1;ratioP1;P1;durP2;ratioP2;P2;SDS_P1;SDS_P2;PMS_P1;PMS_P2;Temp;Humidity;BMP_temperature;BMP_pressure;BME280_temperature;BME280_humidity;BME280_pressure;Samples;Min_cycle;Max_cycle;Signal;HPM_P1;HPM_P2
2023/06/18 00:02:03;;;;;;;22.87;18.23;;;13.50;91.30;;;;;;6308803;22;20667;-88
2023/06/18 00:04:31;;;;;;;24.47;18.23;;;13.50;99.90;;;;;;6309232;22;20177;-89
2023/06/18 00:06:58;;;;;;;22.40;18.27;;;13.50;99.90;;;;;;6309745;22;20551;-90
2023/06/18 00:09:26;;;;;;;25.77;19.83;;;13.50;99.90;;;;;;6309700;22;20624;-91
2023/06/18 00:11:53;;;;;;;27.40;19.83;;;13.50;99.90;;;;;;6309553;22;20241;-90
2023/06/18 00:14:20;;;;;;;49.13;19.60;;;13.50;99.90;;;;;;6309903;22;20181;-90
2023/06/18 00:16:47;;;;;;;51.53;18.97;;;13.40;1.00;;;;;;6309389;22;20702;-91
2023/06/18 00:19:15;;;;;;;23.27;17.80;;;13.30;1.00;;;;;;6309751;22;20176;-90
2023/06/18 00:21:42;;;;;;;31.27;21.17;;;13.20;1.00;;;;;;6309793;22;20165;-89
2023/06/18 00:24:09;;;;;;;30.90;21.10;;;13.20;3.40;;;;;;6308929;22;20169;-91
2023/06/18 00:26:37;;;;;;;27.63;20.43;;;13.20;60.60;;;;;;6309680;22;20217;-90
2023/06/18 00:29:04;;;;;;;38.53;22.93;;;13.20;76.10;;;;;;6309656;22;20229;-90
2023/06/18 00:31:32;;;;;;;38.33;21.67;;;13.20;99.90;;;;;;6309580;22;20188;-90
2023/06/18 00:34:04;;;;;;;29.40;20.97;;;13.20;99.90;;;;;;6309383;22;20187;-90
2023/06/18 00:36:32;;;;;;;32.50;21.30;;;13.20;99.90;;;;;;6308702;22;20621;-89
2023/06/18 00:38:59;;;;;;;31.87;20.30;;;13.20;99.90;;;;;;6309201;22;20231;-90
2023/06/18 00:41:27;;;;;;;94.47;16.63;;;13.20;99.90;;;;;;6308818;22;20172;-89
2023/06/18 00:43:57;;;;;;;185.27;25.97;;;13.10;99.90;;;;;;6308878;22;20712;-89
2023/06/18 00:46:25;;;;;;;44.13;21.53;;;13.10;99.90;;;;;;6308815;22;20173;-90
2023/06/18 00:48:53;;;;;;;380.47;28.43;;;13.10;99.90;;;;;;6308916;22;20178;-89
2023/06/18 00:51:22;;;;;;;171.70;22.67;;;13.10;99.90;;;;;;6308358;22;20562;-90
2023/06/18 00:53:49;;;;;;;248.77;24.07;;;13.10;99.90;;;;;;6308443;22;20164;-90
2023/06/18 00:56:17;;;;;;;194.47;22.27;;;13.00;1.00;;;;;;6308859;22;20226;-90
2023/06/18 00:58:47;;;;;;;222.07;22.93;;;12.90;1.00;;;;;;6308916;22;20233;-89
2023/06/18 01:01:15;;;;;;;230.27;27.17;;;12.80;1.00;;;;;;6309295;22;20178;-90
2023/06/18 01:03:47;;;;;;;221.03;25.20;;;12.70;1.00;;;;;;6308143;22;20671;-89
2023/06/18 01:06:18;;;;;;;168.47;23.70;;;12.70;56.20;;;;;;6308506;22;20193;-89
2023/06/18 01:08:48;;;;;;;132.97;21.30;;;12.70;99.90;;;;;;6308235;22;20626;-89
2023/06/18 01:11:18;;;;;;;173.67;21.07;;;12.80;99.90;;;;;;6308317;22;20673;-90
2023/06/18 01:13:46;;;;;;;213.50;21.40;;;12.80;99.90;;;;;;6308811;22;20210;-89
2023/06/18 01:16:15;;;;;;;109.40;16.73;;;12.80;99.90;;;;;;6308156;22;20171;-89
2023/06/18 01:18:46;;;;;;;106.90;17.70;;;12.80;99.90;;;;;;6308798;22;20169;-89
2023/06/18 01:21:18;;;;;;;171.37;19.33;;;12.80;99.90;;;;;;6308438;22;20158;-89
2023/06/18 01:23:57;;;;;;;69.80;18.60;;;12.70;99.90;;;;;;6308422;22;20183;-89
2023/06/18 01:26:26;;;;;;;59.70;18.70;;;12.70;99.90;;;;;;6308530;22;20185;-89
2023/06/18 01:28:53;;;;;;;147.50;18.80;;;12.70;1.00;;;;;;6308445;22;20527;-89
2023/06/18 01:31:23;;;;;;;256.63;21.77;;;12.70;1.00;;;;;;6308577;22;20173;-89
2023/06/18 01:33:53;;;;;;;163.00;20.13;;;12.70;99.90;;;;;;6308615;22;20244;-89
2023/06/18 01:36:34;;;;;;;259.83;22.13;;;12.60;99.90;;;;;;6308358;22;20251;-89
2023/06/18 01:39:07;;;;;;;128.83;20.13;;;12.60;1.00;;;;;;6308751;22;20195;-89
2023/06/18 01:41:37;;;;;;;146.80;18.57;;;12.50;99.90;;;;;;6308048;22;20152;-90
2023/06/18 01:44:09;;;;;;;176.33;19.50;;;12.50;99.90;;;;;;6308170;22;20664;-90
2023/06/18 01:46:38;;;;;;;417.73;31.00;;;12.50;99.90;;;;;;6308297;22;20160;-89
2023/06/18 01:49:09;;;;;;;43.50;18.63;;;12.40;99.90;;;;;;6307828;22;20192;-89
2023/06/18 01:51:37;;;;;;;388.73;29.43;;;12.40;99.90;;;;;;6307849;22;20248;-90
2023/06/18 01:54:07;;;;;;;313.70;28.37;;;12.40;99.90;;;;;;6308214;22;20182;-90
2023/06/18 01:56:35;;;;;;;260.97;24.70;;;12.40;1.00;;;;;;6308605;22;20225;-90
2023/06/18 01:59:03;;;;;;;297.47;23.80;;;12.50;1.00;;;;;;6308026;22;20175;-90
2023/06/18 02:01:31;;;;;;;344.80;24.53;;;12.50;99.90;;;;;;6308358;22;20252;-89
2023/06/18 02:03:59;;;;;;;346.47;28.93;;;12.40;99.90;;;;;;6308259;22;20197;-89
2023/06/18 02:06:26;;;;;;;536.33;37.60;;;12.40;99.90;;;;;;6307968;22;20590;-89
2023/06/18 02:08:53;;;;;;;84.37;22.33;;;12.40;99.90;;;;;;6308191;22;20175;-89
2023/06/18 02:11:20;;;;;;;38.33;19.97;;;12.40;1.00;;;;;;6307511;22;20694;-89
2023/06/18 02:13:47;;;;;;;24.33;16.63;;;12.40;1.00;;;;;;6307663;22;20171;-89
2023/06/18 02:16:14;;;;;;;24.77;15.70;;;12.40;1.00;;;;;;6308417;22;20170;-90
2023/06/18 02:18:41;;;;;;;25.60;15.97;;;12.40;1.00;;;;;;6308235;22;20172;-90
2023/06/18 02:21:09;;;;;;;22.23;15.70;;;12.40;1.00;;;;;;6307557;22;20609;-90
2023/06/18 02:23:36;;;;;;;19.83;15.40;;;12.40;1.00;;;;;;6308471;22;20228;-89
2023/06/18 02:26:03;;;;;;;22.53;15.97;;;12.40;99.90;;;;;;6308474;22;20180;-90
2023/06/18 02:28:30;;;;;;;24.53;15.93;;;12.30;99.90;;;;;;6308263;22;20232;-90
2023/06/18 02:30:57;;;;;;;23.97;17.53;;;12.30;99.90;;;;;;6308409;22;20170;-90
2023/06/18 02:33:25;;;;;;;67.27;20.17;;;12.30;99.90;;;;;;6308062;22;20562;-90
2023/06/18 02:35:52;;;;;;;143.20;21.50;;;12.20;99.90;;;;;;6307839;22;20171;-90
2023/06/18 02:38:21;;;;;;;239.37;22.20;;;12.20;99.90;;;;;;6307983;22;20228;-89
2023/06/18 02:40:48;;;;;;;196.50;19.73;;;12.20;99.90;;;;;;6307772;22;20171;-89
2023/06/18 02:43:15;;;;;;;270.70;26.00;;;12.20;99.90;;;;;;6308221;22;20220;-89
2023/06/18 02:45:42;;;;;;;168.27;21.00;;;12.30;99.90;;;;;;6308084;22;20198;-89
2023/06/18 02:48:09;;;;;;;133.47;19.93;;;12.30;99.90;;;;;;6307888;22;20176;-89
2023/06/18 02:50:36;;;;;;;97.70;16.90;;;12.30;99.90;;;;;;6308191;22;20224;-89
2023/06/18 02:53:03;;;;;;;102.30;18.97;;;12.30;99.90;;;;;;6307361;22;20192;-90
2023/06/18 02:55:32;;;;;;;25.67;15.40;;;12.30;99.90;;;;;;6307693;22;20172;-89
2023/06/18 02:57:59;;;;;;;22.93;16.67;;;12.40;90.90;;;;;;6308066;22;20656;-88
2023/06/18 03:00:26;;;;;;;24.67;16.37;;;12.40;1.00;;;;;;6307299;22;20254;-89
2023/06/18 03:02:53;;;;;;;22.67;15.43;;;12.40;1.00;;;;;;6307477;22;20184;-90
2023/06/18 03:05:19;;;;;;;22.67;15.37;;;12.30;1.00;;;;;;6309757;22;20179;-89
2023/06/18 03:07:46;;;;;;;64.40;16.57;;;12.40;1.00;;;;;;6310220;22;20175;-90
2023/06/18 03:10:14;;;;;;;66.53;15.07;;;12.40;1.00;;;;;;6309877;22;20175;-90
2023/06/18 03:12:42;;;;;;;102.27;14.87;;;12.50;1.00;;;;;;6309676;22;20229;-90
2023/06/18 03:15:10;;;;;;;132.17;15.70;;;12.50;1.00;;;;;;6309660;22;20168;-89
2023/06/18 03:17:36;;;;;;;96.10;16.23;;;12.60;1.00;;;;;;6309512;22;20236;-89
2023/06/18 03:20:06;;;;;;;86.83;16.27;;;12.70;1.00;;;;;;6310222;22;20171;-89
2023/06/18 03:22:33;;;;;;;83.10;14.83;;;12.70;1.00;;;;;;6309546;22;20614;-89
2023/06/18 03:25:01;;;;;;;99.97;15.13;;;12.70;99.90;;;;;;6309633;22;20174;-90
2023/06/18 03:27:28;;;;;;;49.20;14.00;;;12.60;99.90;;;;;;6309866;22;20317;-89
2023/06/18 03:29:56;;;;;;;35.20;14.33;;;12.60;1.00;;;;;;6309767;22;20237;-90
2023/06/18 03:32:23;;;;;;;22.50;14.43;;;12.70;1.00;;;;;;6309407;22;20636;-90
2023/06/18 03:34:51;;;;;;;57.63;14.00;;;12.80;1.00;;;;;;6309747;22;20174;-90
2023/06/18 03:37:18;;;;;;;73.37;13.47;;;12.80;99.90;;;;;;6309834;22;20176;-89
2023/06/18 03:39:45;;;;;;;64.27;13.67;;;12.90;99.90;;;;;;6309796;22;20254;-89
2023/06/18 03:42:13;;;;;;;46.13;12.03;;;12.90;99.90;;;;;;6309594;22;20171;-90
2023/06/18 03:44:40;;;;;;;27.17;11.60;;;13.10;99.90;;;;;;6309199;22;20686;-89
2023/06/18 03:47:08;;;;;;;14.20;10.63;;;13.20;99.90;;;;;;6309258;22;20177;-90
2023/06/18 03:49:35;;;;;;;22.37;16.13;;;13.40;99.90;;;;;;6309465;22;20165;-89
2023/06/18 03:52:02;;;;;;;18.73;15.47;;;13.50;99.90;;;;;;6309096;22;20192;-89
2023/06/18 03:54:29;;;;;;;13.33;12.00;;;13.70;99.90;;;;;;6309629;22;20173;-89
2023/06/18 03:56:56;;;;;;;18.30;10.40;;;13.90;99.90;;;;;;6309698;22;20181;-90
2023/06/18 03:59:23;;;;;;;17.03;10.33;;;14.20;1.00;;;;;;6309415;22;20176;-90
2023/06/18 04:01:51;;;;;;;19.70;9.90;;;14.70;1.00;;;;;;6309132;22;20165;-91
2023/06/18 04:04:19;;;;;;;41.95;10.75;;;15.30;1.00;;;;;;6308915;22;20623;-89
2023/06/18 04:06:46;;;;;;;57.60;10.60;;;15.90;99.90;;;;;;6309140;22;20173;-90
2023/06/18 04:09:13;;;;;;;39.83;10.02;;;16.40;99.90;;;;;;6309513;22;20174;-90
2023/06/18 04:11:42;;;;;;;32.40;8.57;;;16.90;1.00;;;;;;6309402;22;20179;-90
2023/06/18 04:14:09;;;;;;;11.68;8.65;;;17.40;1.00;;;;;;6308591;22;20186;-89
2023/06/18 04:16:36;;;;;;;8.65;7.85;;;17.80;99.90;;;;;;6308664;22;20166;-90
2023/06/18 04:19:03;;;;;;;8.88;7.93;;;18.40;99.90;;;;;;6309403;22;20167;-90
2023/06/18 04:21:34;;;;;;;6.53;5.93;;;19.00;99.90;;;;;;6308956;22;20167;-89
2023/06/18 04:24:02;;;;;;;6.10;5.60;;;19.50;1.00;;;;;;6308465;22;20196;-90
2023/06/18 04:26:29;;;;;;;5.78;5.25;;;19.90;1.00;;;;;;6308741;22;20628;-89
2023/06/18 04:28:56;;;;;;;6.70;5.78;;;20.30;99.90;;;;;;6309076;22;20175;-91
2023/06/18 04:31:23;;;;;;;7.15;6.45;;;20.70;1.00;;;;;;6309050;22;20171;-90
2023/06/18 04:33:50;;;;;;;7.13;6.43;;;21.10;99.90;;;;;;6308826;22;20187;-90
2023/06/18 04:36:17;;;;;;;7.20;6.50;;;21.40;1.00;;;;;;6309739;22;20224;-91
2023/06/18 04:38:45;;;;;;;8.40;7.60;;;21.70;1.00;;;;;;6309076;22;20217;-90
2023/06/18 04:41:12;;;;;;;8.98;8.05;;;22.00;99.90;;;;;;6308569;22;20217;-91
2023/06/18 04:43:39;;;;;;;9.45;8.48;;;22.30;1.00;;;;;;6308934;22;20225;-89
2023/06/18 04:46:06;;;;;;;10.63;8.30;;;22.60;1.00;;;;;;6308881;22;20224;-91
2023/06/18 04:48:34;;;;;;;9.38;8.48;;;23.00;99.90;;;;;;6308972;22;20166;-90
2023/06/18 04:51:01;;;;;;;10.55;9.55;;;23.20;99.90;;;;;;6308490;22;20223;-91
2023/06/18 04:53:29;;;;;;;10.85;9.75;;;23.50;1.00;;;;;;6308234;22;20194;-90
2023/06/18 04:55:57;;;;;;;10.65;9.55;;;23.80;99.90;;;;;;6309188;22;20179;-91
2023/06/18 04:58:24;;;;;;;10.23;9.23;;;23.90;48.20;;;;;;6308576;22;20167;-91
2023/06/18 05:00:52;;;;;;;10.63;9.57;;;24.10;99.90;;;;;;6308453;22;20225;-91
2023/06/18 05:03:19;;;;;;;9.77;8.70;;;24.30;99.20;;;;;;6308778;22;20171;-91
2023/06/18 05:05:46;;;;;;;10.45;9.35;;;24.60;1.00;;;;;;6308691;22;20175;-91
2023/06/18 05:08:13;;;;;;;10.20;9.25;;;24.80;99.90;;;;;;6308846;22;20629;-92
2023/06/18 05:10:40;;;;;;;9.98;8.98;;;24.80;1.00;;;;;;6309034;22;20170;-92
2023/06/18 05:13:08;;;;;;;11.20;9.43;;;24.90;1.00;;;;;;6308695;22;20194;-92
2023/06/18 05:15:35;;;;;;;11.20;10.10;;;24.50;1.00;;;;;;6309059;22;20629;-92
2023/06/18 05:18:02;;;;;;;11.07;9.98;;;23.90;1.00;;;;;;6308842;22;20171;-91
2023/06/18 05:20:29;;;;;;;12.48;9.75;;;23.40;99.90;;;;;;6308829;22;20200;-92
2023/06/18 05:22:56;;;;;;;12.07;10.85;;;22.90;1.00;;;;;;6308972;22;20173;-92
2023/06/18 05:25:23;;;;;;;11.25;10.20;;;22.50;80.60;;;;;;6309204;22;20544;-91
2023/06/18 05:27:50;;;;;;;12.35;11.05;;;22.10;1.00;;;;;;6308350;22;20167;-91
2023/06/18 05:30:19;;;;;;;11.75;10.43;;;21.90;1.00;;;;;;6308520;22;20171;-92
2023/06/18 05:32:46;;;;;;;12.05;10.85;;;21.60;99.90;;;;;;6308637;22;20560;-91
2023/06/18 05:35:13;;;;;;;12.98;11.57;;;21.40;99.90;;;;;;6309223;22;20170;-92
2023/06/18 05:37:40;;;;;;;13.07;11.25;;;21.20;1.00;;;;;;6309285;22;20228;-90
2023/06/18 05:40:09;;;;;;;13.38;11.05;;;21.10;1.00;;;;;;6308663;22;20159;-92
2023/06/18 05:42:38;;;;;;;13.25;11.30;;;21.00;99.90;;;;;;6308839;22;20613;-90
2023/06/18 05:45:06;;;;;;;12.13;10.30;;;20.90;99.90;;;;;;6308998;22;20186;-92
2023/06/18 05:47:35;;;;;;;11.57;10.48;;;20.80;99.90;;;;;;6308997;22;20167;-92
2023/06/18 05:50:02;;;;;;;13.02;11.68;;;20.70;99.90;;;;;;6308626;22;20174;-92
2023/06/18 05:52:29;;;;;;;12.63;11.32;;;20.60;99.90;;;;;;6308394;22;20199;-92
2023/06/18 05:54:55;;;;;;;13.85;11.77;;;20.60;1.00;;;;;;6309174;22;20174;-92
2023/06/18 05:57:22;;;;;;;14.90;11.75;;;20.50;1.00;;;;;;6309059;22;20258;-92
2023/06/18 05:59:49;;;;;;;11.60;10.40;;;20.50;1.00;;;;;;6308835;22;20167;-92
2023/06/18 06:02:16;;;;;;;12.00;10.80;;;20.40;99.90;;;;;;6309095;22;20224;-93
2023/06/18 06:04:45;;;;;;;12.90;11.07;;;20.40;99.90;;;;;;6308568;22;20538;-93
2023/06/18 06:07:12;;;;;;;12.60;11.30;;;20.50;99.90;;;;;;6309140;22;20166;-93
2023/06/18 06:09:39;;;;;;;12.45;11.15;;;20.50;99.90;;;;;;6309024;22;20175;-92
2023/06/18 06:12:06;;;;;;;11.70;10.10;;;20.60;99.90;;;;;;6308941;22;20235;-92
2023/06/18 06:14:33;;;;;;;13.05;11.25;;;20.60;33.80;;;;;;6308400;22;20240;-93
2023/06/18 06:17:00;;;;;;;10.07;9.07;;;20.60;99.90;;;;;;6308508;22;20224;-93
2023/06/18 06:19:27;;;;;;;11.13;9.93;;;20.70;1.00;;;;;;6309044;22;20233;-93
2023/06/18 06:21:55;;;;;;;14.48;11.15;;;20.70;1.00;;;;;;6308650;22;20171;-92
2023/06/18 06:24:22;;;;;;;14.93;10.93;;;20.90;1.00;;;;;;6308480;22;20621;-93
2023/06/18 06:26:49;;;;;;;11.63;10.43;;;20.90;1.00;;;;;;6308272;22;20644;-92
2023/06/18 06:29:16;;;;;;;12.73;11.35;;;21.00;99.90;;;;;;6308634;22;20629;-92
2023/06/18 06:31:43;;;;;;;12.00;10.70;;;21.00;99.90;;;;;;6308409;22;20170;-93
2023/06/18 06:34:10;;;;;;;11.25;10.10;;;21.10;1.00;;;;;;6308752;22;20191;-92
2023/06/18 06:36:38;;;;;;;14.55;10.80;;;21.20;1.00;;;;;;6308916;22;20224;-92
2023/06/18 06:39:07;;;;;;;12.32;10.98;;;21.30;1.00;;;;;;6309389;22;20563;-93
2023/06/18 06:41:34;;;;;;;11.90;10.50;;;21.40;99.90;;;;;;6310620;22;20628;-92
2023/06/18 06:44:01;;;;;;;11.98;10.52;;;21.40;99.90;;;;;;6310119;22;20167;-92
2023/06/18 06:46:28;;;;;;;11.93;10.73;;;21.50;99.90;;;;;;6310642;22;20193;-93
2023/06/18 06:48:54;;;;;;;14.75;10.85;;;21.50;99.90;;;;;;6310793;22;20182;-93
2023/06/18 06:51:21;;;;;;;10.90;9.80;;;21.50;99.90;;;;;;6310011;22;20167;-92
2023/06/18 06:53:48;;;;;;;11.60;9.85;;;21.60;99.90;;;;;;6310636;22;20220;-93
2023/06/18 06:56:17;;;;;;;12.45;10.00;;;21.70;99.90;;;;;;6310583;22;20179;-92
2023/06/18 06:58:44;;;;;;;11.43;10.30;;;21.80;88.60;;;;;;6310375;22;20216;-92
2023/06/18 07:01:11;;;;;;;13.32;10.60;;;21.70;1.00;;;;;;6310727;22;20171;-92
2023/06/18 07:03:38;;;;;;;11.40;10.20;;;21.80;1.00;;;;;;6310574;22;20170;-92
2023/06/18 07:06:06;;;;;;;10.95;9.68;;;21.90;1.00;;;;;;6310522;22;20232;-92
2023/06/18 07:08:33;;;;;;;11.98;10.07;;;22.00;1.00;;;;;;6311019;22;20173;-92
2023/06/18 07:11:00;;;;;;;12.32;10.43;;;22.00;1.00;;;;;;6310573;22;20174;-93
2023/06/18 07:13:28;;;;;;;11.98;10.45;;;22.10;1.00;;;;;;6310013;22;20261;-93
2023/06/18 07:15:56;;;;;;;11.25;10.15;;;22.20;1.00;;;;;;6310268;22;20170;-92
2023/06/18 07:18:23;;;;;;;11.25;10.25;;;22.30;1.00;;;;;;6310701;22;20276;-92
2023/06/18 07:20:50;;;;;;;11.27;9.98;;;22.50;1.00;;;;;;6310623;22;20273;-92
2023/06/18 07:23:17;;;;;;;10.77;9.63;;;22.50;99.90;;;;;;6310484;22;20167;-92
2023/06/18 07:25:44;;;;;;;9.85;8.90;;;22.60;99.90;;;;;;6310483;22;20228;-93
2023/06/18 07:28:11;;;;;;;9.63;8.60;;;22.60;1.00;;;;;;6310843;22;20174;-93
2023/06/18 07:30:39;;;;;;;10.55;9.25;;;22.70;1.00;;;;;;6310513;22;20225;-94
2023/06/18 07:33:06;;;;;;;11.75;7.97;;;22.70;1.00;;;;;;6310063;22;20171;-93
2023/06/18 07:35:33;;;;;;;27.83;16.48;;;22.80;1.00;;;;;;6309776;22;20519;-95
2023/06/18 07:38:00;;;;;;;9.80;8.80;;;22.80;1.00;;;;;;6310449;22;20647;-94
2023/06/18 07:40:28;;;;;;;23.25;13.02;;;23.00;1.00;;;;;;6309898;22;20668;-94
2023/06/18 07:42:55;;;;;;;10.43;8.38;;;23.10;99.90;;;;;;6309624;22;20175;-95
2023/06/18 07:45:22;;;;;;;9.32;8.32;;;23.30;99.90;;;;;;6310295;22;20167;-93
2023/06/18 07:47:50;;;;;;;9.73;8.45;;;23.40;99.90;;;;;;6310540;22;20171;-95
2023/06/18 07:50:17;;;;;;;9.38;8.40;;;23.50;99.90;;;;;;6309865;22;20691;-95
2023/06/18 07:52:44;;;;;;;36.17;21.38;;;23.70;15.00;;;;;;6312460;22;20191;-94
2023/06/18 07:55:11;;;;;;;15.23;10.52;;;23.80;1.00;;;;;;6310201;22;20191;-94
2023/06/18 07:57:39;;;;;;;17.23;12.65;;;23.70;1.00;;;;;;6310301;22;20502;-96
2023/06/18 08:00:07;;;;;;;7.80;7.00;;;23.70;1.00;;;;;;6309822;22;20167;-95
2023/06/18 08:02:35;;;;;;;8.60;7.47;;;23.70;1.00;;;;;;6309858;22;20564;-95
2023/06/18 08:05:03;;;;;;;8.57;7.20;;;23.70;1.00;;;;;;6310331;22;20163;-95
2023/06/18 08:07:30;;;;;;;7.90;7.10;;;23.90;1.00;;;;;;6309781;22;20205;-95
2023/06/18 08:09:57;;;;;;;8.05;7.20;;;24.00;1.00;;;;;;6310450;22;20544;-94
2023/06/18 08:12:25;;;;;;;9.88;7.57;;;24.10;1.00;;;;;;6310046;22;20236;-94
2023/06/18 08:14:52;;;;;;;14.82;11.52;;;24.10;1.00;;;;;;6309979;22;20221;-95
2023/06/18 08:17:19;;;;;;;12.35;9.82;;;24.00;99.90;;;;;;6310106;22;20207;-96
2023/06/18 08:19:47;;;;;;;8.27;7.25;;;23.90;99.90;;;;;;6310092;22;20170;-95
2023/06/18 08:22:16;;;;;;;6.50;5.90;;;23.80;99.90;;;;;;6309602;22;20253;-95
2023/06/18 08:24:44;;;;;;;9.27;5.63;;;23.90;99.90;;;;;;6309960;22;20163;-94
2023/06/18 08:27:12;;;;;;;6.05;5.20;;;24.30;99.90;;;;;;6309892;22;20547;-95
2023/06/18 08:29:39;;;;;;;6.32;5.70;;;24.60;99.90;;;;;;6309917;22;20254;-95
2023/06/18 08:32:07;;;;;;;5.38;4.88;;;24.60;99.90;;;;;;6311770;22;20219;-95
2023/06/18 08:34:36;;;;;;;6.63;5.35;;;24.60;99.90;;;;;;6308977;22;20187;-93
2023/06/18 08:37:04;;;;;;;5.78;5.28;;;24.70;99.90;;;;;;6309208;22;20175;-94
2023/06/18 08:39:32;;;;;;;6.70;6.00;;;24.70;99.90;;;;;;6309889;22;20175;-96
2023/06/18 08:42:00;;;;;;;4.85;4.22;;;24.90;99.90;;;;;;6309965;22;20481;-94
2023/06/18 08:44:27;;;;;;;7.07;4.75;;;25.10;27.00;;;;;;6310335;22;20163;-95
2023/06/18 08:47:00;;;;;;;5.68;4.40;;;25.10;1.00;;;;;;6309314;22;20197;-94
2023/06/18 08:49:28;;;;;;;4.82;4.43;;;25.10;1.00;;;;;;6309434;22;20155;-95
2023/06/18 08:51:57;;;;;;;6.57;5.45;;;25.20;1.00;;;;;;6314165;22;20187;-96
2023/06/18 08:54:34;;;;;;;5.10;4.60;;;25.30;1.00;;;;;;6328587;22;20194;-96
2023/06/18 08:57:07;;;;;;;4.55;4.15;;;25.50;1.00;;;;;;6314736;22;20216;-96
2023/06/18 08:59:35;;;;;;;5.60;4.60;;;25.60;1.00;;;;;;6314147;22;20170;-96
2023/06/18 09:02:04;;;;;;;4.82;4.43;;;25.50;1.00;;;;;;6315036;22;20224;-96
2023/06/18 09:04:32;;;;;;;6.40;4.88;;;25.40;1.00;;;;;;6310767;22;20159;-96
2023/06/18 09:06:59;;;;;;;5.75;4.85;;;25.30;1.00;;;;;;6308589;22;20171;-95
2023/06/18 09:09:27;;;;;;;5.20;4.70;;;25.10;1.00;;;;;;6310505;22;20171;-96
2023/06/18 09:11:55;;;;;;;7.10;5.07;;;25.10;1.00;;;;;;6311734;22;20205;-96
2023/06/18 09:14:23;;;;;;;5.70;4.30;;;25.30;1.00;;;;;;6309533;22;20236;-96
2023/06/18 09:16:51;;;;;;;5.15;4.65;;;25.70;1.00;;;;;;6309399;22;20552;-96
2023/06/18 09:19:20;;;;;;;4.75;4.35;;;25.90;1.00;;;;;;6309058;22;20167;-93
2023/06/18 09:21:47;;;;;;;6.40;4.45;;;25.90;1.00;;;;;;6311071;22;20167;-96
2023/06/18 09:24:19;;;;;;;5.18;4.68;;;25.90;1.00;;;;;;6316805;22;20167;-95
2023/06/18 09:26:47;;;;;;;6.82;6.20;;;25.90;1.00;;;;;;6311714;22;20489;-95
2023/06/18 09:29:15;;;;;;;5.10;4.70;;;26.00;1.00;;;;;;6309143;22;20174;-94
2023/06/18 09:31:45;;;;;;;10.60;6.78;;;26.40;1.00;;;;;;6309365;22;20183;-95
2023/06/18 09:34:17;;;;;;;7.25;5.43;;;26.80;1.00;;;;;;6308599;22;20724;-94
2023/06/18 09:36:47;;;;;;;5.65;4.70;;;26.80;1.00;;;;;;6309427;22;20163;-94
2023/06/18 09:39:18;;;;;;;6.60;5.38;;;26.50;1.00;;;;;;6308848;22;20557;-93
2023/06/18 09:41:46;;;;;;;6.18;5.57;;;26.10;1.00;;;;;;6309731;22;20228;-96
2023/06/18 09:44:15;;;;;;;9.55;8.55;;;25.60;1.00;;;;;;6309561;22;20162;-96
2023/06/18 09:46:44;;;;;;;5.90;5.38;;;25.60;1.00;;;;;;6309752;22;20190;-95
2023/06/18 09:49:13;;;;;;;6.75;5.95;;;25.90;1.00;;;;;;6312581;22;20201;-95
2023/06/18 09:51:41;;;;;;;4.43;4.03;;;26.20;1.00;;;;;;6312706;22;20199;-95
2023/06/18 09:54:09;;;;;;;8.35;7.53;;;26.30;1.00;;;;;;6309168;22;20187;-94
2023/06/18 09:56:38;;;;;;;5.10;4.00;;;26.30;1.00;;;;;;6309407;22;20171;-96
2023/06/18 09:59:05;;;;;;;7.07;5.40;;;26.30;1.00;;;;;;6309087;22;20170;-95
2023/06/18 10:01:47;;;;;;;5.28;4.25;;;26.30;1.00;;;;;;6308452;22;20174;-93
2023/06/18 10:04:14;;;;;;;4.97;4.40;;;26.30;1.00;;;;;;6308294;22;20185;-95
2023/06/18 10:06:42;;;;;;;4.65;4.15;;;26.70;1.00;;;;;;6308310;22;20167;-94
2023/06/18 10:09:10;;;;;;;5.55;5.05;;;27.30;1.00;;;;;;6309043;22;20171;-94
2023/06/18 10:11:38;;;;;;;7.45;4.72;;;27.80;1.00;;;;;;6308741;22;20548;-94
2023/06/18 10:14:11;;;;;;;5.88;4.88;;;28.20;1.00;;;;;;6308040;22;20220;-91
2023/06/18 10:16:42;;;;;;;6.25;5.32;;;28.30;1.00;;;;;;6309287;22;20230;-95
2023/06/18 10:19:15;;;;;;;5.13;4.63;;;28.10;1.00;;;;;;6308901;22;20203;-92
2023/06/18 10:21:48;;;;;;;8.18;6.25;;;27.80;1.00;;;;;;6309118;22;20674;-93
2023/06/18 10:24:18;;;;;;;5.85;5.00;;;27.60;1.00;;;;;;6308700;22;20155;-94
2023/06/18 10:26:46;;;;;;;5.47;4.97;;;27.40;1.00;;;;;;6308690;22;20156;-94
2023/06/18 10:29:14;;;;;;;5.50;5.00;;;27.30;1.00;;;;;;6309065;22;20228;-93
2023/06/18 10:31:40;;;;;;;5.88;5.32;;;27.10;1.00;;;;;;6308877;22;20170;-94
2023/06/18 10:34:08;;;;;;;6.97;5.82;;;26.90;1.00;;;;;;6309712;22;20238;-95
2023/06/18 10:36:37;;;;;;;7.65;6.55;;;26.60;1.00;;;;;;6314890;22;20167;-96
2023/06/18 10:39:05;;;;;;;6.70;6.13;;;26.30;1.00;;;;;;6308833;22;20216;-94
2023/06/18 10:41:32;;;;;;;6.60;6.00;;;26.00;1.00;;;;;;6308545;22;20186;-94
2023/06/18 10:44:00;;;;;;;7.53;6.80;;;25.80;1.00;;;;;;6311833;22;20189;-96
2023/06/18 10:46:33;;;;;;;7.72;7.03;;;25.50;1.00;;;;;;6314303;22;20163;-95
2023/06/18 10:49:19;;;;;;;7.97;7.13;;;25.20;1.00;;;;;;6314279;22;20167;-96
2023/06/18 10:52:26;;;;;;;8.93;7.85;;;24.90;1.00;;;;;;6313954;22;20195;-96
2023/06/18 10:54:55;;;;;;;8.70;7.80;;;24.70;1.00;;;;;;6313883;22;20186;-95
2023/06/18 10:57:31;;;;;;;9.55;8.30;;;24.50;1.00;;;;;;6313944;22;20234;-95
2023/06/18 10:59:58;;;;;;;11.50;9.18;;;24.30;1.00;;;;;;6314613;22;20166;-94
2023/06/18 11:02:35;;;;;;;10.63;9.63;;;24.10;48.10;;;;;;6314640;22;20167;-96
2023/06/18 11:05:08;;;;;;;12.57;11.25;;;24.00;99.90;;;;;;6316100;22;20183;-95
2023/06/18 11:07:43;;;;;;;10.45;9.55;;;24.10;99.90;;;;;;6315573;22;20155;-95
2023/06/18 11:10:13;;;;;;;16.92;15.13;;;24.40;99.90;;;;;;6314655;22;20151;-94
2023/06/18 11:12:45;;;;;;;15.95;13.75;;;24.60;1.00;;;;;;6315496;22;20227;-95
2023/06/18 11:15:17;;;;;;;50.42;45.85;;;24.90;1.00;;;;;;6315479;22;20588;-96
2023/06/18 11:17:48;;;;;;;14.38;11.48;;;25.10;99.90;;;;;;6314687;22;20163;-95
2023/06/18 11:20:17;;;;;;;9.38;8.48;;;25.40;99.90;;;;;;6319631;22;20167;-96
2023/06/18 11:22:59;;;;;;;9.15;8.25;;;25.70;99.90;;;;;;6313368;22;20203;-95
2023/06/18 11:25:28;;;;;;;8.48;7.50;;;25.90;99.90;;;;;;6315113;22;20189;-96
2023/06/18 11:27:58;;;;;;;8.55;7.75;;;26.10;99.90;;;;;;6314423;22;20169;-94
2023/06/18 11:30:25;;;;;;;7.70;7.00;;;26.10;99.90;;;;;;6309945;22;20585;-95
2023/06/18 11:32:52;;;;;;;7.57;6.97;;;26.10;99.90;;;;;;6310348;22;20246;-92
2023/06/18 11:35:19;;;;;;;7.25;6.57;;;26.00;63.30;;;;;;6310768;22;20191;-93
2023/06/18 11:37:48;;;;;;;8.02;7.22;;;25.70;1.00;;;;;;6310389;22;20171;-93
2023/06/18 11:40:15;;;;;;;6.95;6.35;;;25.20;1.00;;;;;;6311988;22;20690;-95
2023/06/18 11:42:49;;;;;;;8.65;7.80;;;24.90;1.00;;;;;;6310049;22;20171;-94
2023/06/18 11:45:17;;;;;;;7.68;6.88;;;24.80;19.20;;;;;;6309565;22;20150;-94
2023/06/18 11:47:47;;;;;;;7.88;7.10;;;24.70;43.80;;;;;;6310152;22;20171;-93
2023/06/18 11:50:14;;;;;;;7.72;6.22;;;24.60;99.90;;;;;;6309766;22;20224;-95
2023/06/18 11:52:41;;;;;;;6.10;5.60;;;24.80;99.90;;;;;;6309509;22;20171;-94
2023/06/18 11:55:10;;;;;;;5.95;5.38;;;25.10;99.90;;;;;;6309679;22;20187;-94
2023/06/18 11:57:38;;;;;;;9.90;9.00;;;25.60;49.20;;;;;;6310301;22;20168;-95
2023/06/18 12:00:08;;;;;;;7.68;4.35;;;26.00;5.30;;;;;;6310295;22;20171;-95
2023/06/18 12:02:37;;;;;;;5.38;4.93;;;26.30;1.00;;;;;;6310295;22;20155;-94
2023/06/18 12:05:05;;;;;;;6.72;6.13;;;26.30;1.00;;;;;;6310554;22;20228;-94
2023/06/18 12:07:33;;;;;;;5.88;5.38;;;26.40;1.00;;;;;;6309897;22;20690;-94
2023/06/18 12:10:06;;;;;;;7.05;6.38;;;26.40;1.00;;;;;;6310247;22;20232;-94
2023/06/18 12:12:39;;;;;;;6.15;5.55;;;26.50;1.00;;;;;;6310349;22;20151;-95
2023/06/18 12:15:13;;;;;;;5.80;5.30;;;26.30;1.00;;;;;;6309886;22;20171;-95
2023/06/18 12:17:49;;;;;;;8.00;6.43;;;26.10;1.00;;;;;;6310418;22;20224;-95
2023/06/18 12:20:16;;;;;;;10.20;7.85;;;26.00;1.00;;;;;;6309945;22;20186;-94
2023/06/18 12:22:43;;;;;;;8.27;6.43;;;25.90;1.00;;;;;;6309711;22;20248;-94
2023/06/18 12:25:11;;;;;;;10.00;8.57;;;25.60;1.00;;;;;;6310376;22;20224;-95
2023/06/18 12:27:41;;;;;;;9.27;8.38;;;25.40;1.00;;;;;;6309871;22;20270;-94
2023/06/18 12:30:09;;;;;;;10.48;6.80;;;25.40;1.00;;;;;;6309226;22;20167;-94
2023/06/18 12:32:37;;;;;;;7.15;6.38;;;25.20;1.00;;;;;;6309446;22;20216;-95
2023/06/18 12:35:12;;;;;;;7.45;6.20;;;25.20;1.00;;;;;;6309649;22;20729;-95
2023/06/18 12:37:42;;;;;;;6.07;5.47;;;25.20;1.00;;;;;;6308940;22;20162;-95
2023/06/18 12:40:11;;;;;;;4.63;4.22;;;25.20;1.00;;;;;;6309963;22;20258;-94
2023/06/18 12:42:40;;;;;;;4.82;4.43;;;25.20;1.00;;;;;;6309042;22;20173;-94
2023/06/18 12:45:08;;;;;;;5.28;4.78;;;25.10;1.00;;;;;;6309871;22;20167;-95
2023/06/18 12:47:40;;;;;;;5.30;4.85;;;25.00;1.00;;;;;;6309930;22;20171;-95